sensor_id;sensor_type;location;lat;lon;timestamp;pressure;altitude;pressure_sealevel;temperature;humidity
56944;BME280;42848;42.524;12.052;2023-05-20T00:01:04;96340.47;;;13.35;100.00
56944;BME280;42848;42.524;12.052;2023-05-20T00:03:29;96338.88;;;13.34;100.00
56944;BME280;42848;42.524;12.052;2023-05-20T00:05:55;96338.97;;;13.37;100.00
56944;BME280;42848;42.524;12.052;2023-05-20T00:08:21;96338.78;;;13.30;100.00
56944;BME280;42848;42.524;12.052;2023-05-20T00:10:46;96331.03;;;13.32;100.00
56944;BME280;42848;42.524;12.052;2023-05-20T00:13:12;96315.31;;;13.26;100.00
56944;BME280;42848;42.524;12.052;2023-05-20T00:15:38;96318.13;;;13.29;100.00
56944;BME280;42848;42.524;12.052;2023-05-20T00:18:03;96316.75;;;13.23;100.00
56944;BME280;42848;42.524;12.052;2023-05-20T00:20:30;96314.25;;;13.30;100.00
56944;BME280;42848;42.524;12.052;2023-05-20T00:22:56;96309.84;;;13.26;100.00
56944;BME280;42848;42.524;12.052;2023-05-20T00:25:22;96302.78;;;13.25;100.00
56944;BME280;42848;42.524;12.052;2023-05-20T00:27:48;96293.38;;;13.22;100.00
56944;BME280;42848;42.524;12.052;2023-05-20T00:30:14;96299.28;;;13.24;100.00
56944;BME280;42848;42.524;12.052;2023-05-20T00:32:39;96294.97;;;13.23;100.00
56944;BME280;42848;42.524;12.052;2023-05-20T00:35:06;96288.72;;;13.23;100.00
56944;BME280;42848;42.524;12.052;2023-05-20T00:37:31;96279.41;;;13.24;100.00
56944;BME280;42848;42.524;12.052;2023-05-20T00:39:57;96281.78;;;13.25;100.00
56944;BME280;42848;42.524;12.052;2023-05-20T00:42:25;96261.47;;;13.23;100.00
56944;BME280;42848;42.524;12.052;2023-05-20T00:44:52;96263.84;;;13.24;100.00
56944;BME280;42848;42.524;12.052;2023-05-20T00:47:19;96261.22;;;13.28;100.00
56944;BME280;42848;42.524;12.052;2023-05-20T00:49:47;96254.88;;;13.24;100.00
56944;BME280;42848;42.524;12.052;2023-05-20T00:52:17;96251.34;;;13.23;100.00
56944;BME280;42848;42.524;12.052;2023-05-20T00:54:43;96259.09;;;13.21;100.00
56944;BME280;42848;42.524;12.052;2023-05-20T00:57:10;96248.97;;;13.22;100.00
56944;BME280;42848;42.524;12.052;2023-05-20T00:59:37;96237.97;;;13.18;100.00
56944;BME280;42848;42.524;12.052;2023-05-20T01:02:03;96240.22;;;13.16;100.00
56944;BME280;42848;42.524;12.052;2023-05-20T01:04:30;96232.03;;;13.16;100.00
56944;BME280;42848;42.524;12.052;2023-05-20T01:06:57;96230.94;;;13.17;100.00
56944;BME280;42848;42.524;12.052;2023-05-20T01:09:24;96221.13;;;13.16;100.00
56944;BME280;42848;42.524;12.052;2023-05-20T01:11:55;96229.09;;;13.21;100.00
56944;BME280;42848;42.524;12.052;2023-05-20T01:14:26;96230.69;;;13.22;100.00
56944;BME280;42848;42.524;12.052;2023-05-20T01:16:55;96217.06;;;13.22;100.00
56944;BME280;42848;42.524;12.052;2023-05-20T01:19:33;96215.91;;;13.23;100.00
56944;BME280;42848;42.524;12.052;2023-05-20T01:22:02;96213.19;;;13.23;100.00
56944;BME280;42848;42.524;12.052;2023-05-20T01:24:31;96204.66;;;13.25;100.00
56944;BME280;42848;42.524;12.052;2023-05-20T01:26:57;96190.50;;;13.19;100.00
56944;BME280;42848;42.524;12.052;2023-05-20T01:29:24;96192.09;;;13.20;100.00
56944;BME280;42848;42.524;12.052;2023-05-20T01:31:52;96178.00;;;13.18;100.00
56944;BME280;42848;42.524;12.052;2023-05-20T01:34:19;96171.09;;;13.21;100.00
56944;BME280;42848;42.524;12.052;2023-05-20T01:36:45;96168.56;;;13.16;100.00
56944;BME280;42848;42.524;12.052;2023-05-20T01:39:12;96178.25;;;13.13;100.00
56944;BME280;42848;42.524;12.052;2023-05-20T01:41:40;96168.50;;;13.12;100.00
56944;BME280;42848;42.524;12.052;2023-05-20T01:44:06;96169.19;;;13.09;100.00
56944;BME280;42848;42.524;12.052;2023-05-20T01:46:32;96181.25;;;13.08;100.00
56944;BME280;42848;42.524;12.052;2023-05-20T01:48:59;96173.41;;;13.06;100.00
56944;BME280;42848;42.524;12.052;2023-05-20T01:51:24;96167.69;;;13.12;100.00
56944;BME280;42848;42.524;12.052;2023-05-20T01:53:50;96172.28;;;13.07;100.00
56944;BME280;42848;42.524;12.052;2023-05-20T01:56:16;96168.41;;;13.08;100.00
56944;BME280;42848;42.524;12.052;2023-05-20T01:58:41;96174.38;;;13.14;100.00
56944;BME280;42848;42.524;12.052;2023-05-20T02:01:07;96162.16;;;13.08;100.00
56944;BME280;42848;42.524;12.052;2023-05-20T02:03:33;96167.94;;;13.06;100.00
56944;BME280;42848;42.524;12.052;2023-05-20T02:05:59;96166.81;;;13.07;100.00
56944;BME280;42848;42.524;12.052;2023-05-20T02:08:24;96177.72;;;13.07;100.00
56944;BME280;42848;42.524;12.052;2023-05-20T02:10:50;96161.03;;;13.09;100.00
56944;BME280;42848;42.524;12.052;2023-05-20T02:13:15;96161.25;;;13.04;100.00
56944;BME280;42848;42.524;12.052;2023-05-20T02:15:41;96171.72;;;13.02;100.00
56944;BME280;42848;42.524;12.052;2023-05-20T02:18:07;96164.34;;;13.02;100.00
56944;BME280;42848;42.524;12.052;2023-05-20T02:20:36;96165.22;;;13.06;100.00
56944;BME280;42848;42.524;12.052;2023-05-20T02:23:02;96160.13;;;13.05;100.00
56944;BME280;42848;42.524;12.052;2023-05-20T02:25:31;96168.22;;;13.01;100.00
56944;BME280;42848;42.524;12.052;2023-05-20T02:27:57;96158.81;;;12.99;100.00
56944;BME280;42848;42.524;12.052;2023-05-20T02:30:22;96161.06;;;12.97;100.00
56944;BME280;42848;42.524;12.052;2023-05-20T02:32:48;96147.91;;;12.99;100.00
56944;BME280;42848;42.524;12.052;2023-05-20T02:35:13;96144.38;;;12.98;100.00
56944;BME280;42848;42.524;12.052;2023-05-20T02:37:39;96130.75;;;12.98;100.00
56944;BME280;42848;42.524;12.052;2023-05-20T02:40:05;96141.66;;;12.98;100.00
56944;BME280;42848;42.524;12.052;2023-05-20T02:42:33;96136.31;;;13.02;100.00
56944;BME280;42848;42.524;12.052;2023-05-20T02:44:58;96150.56;;;13.11;100.00
56944;BME280;42848;42.524;12.052;2023-05-20T02:47:24;96153.53;;;13.06;100.00
56944;BME280;42848;42.524;12.052;2023-05-20T02:49:50;96142.63;;;13.06;100.00
56944;BME280;42848;42.524;12.052;2023-05-20T02:52:16;96145.34;;;13.06;100.00
56944;BME280;42848;42.524;12.052;2023-05-20T02:54:41;96153.81;;;13.01;100.00
56944;BME280;42848;42.524;12.052;2023-05-20T02:57:07;96154.16;;;12.99;100.00
56944;BME280;42848;42.524;12.052;2023-05-20T02:59:33;96153.81;;;13.01;100.00
56944;BME280;42848;42.524;12.052;2023-05-20T03:01:58;96161.25;;;13.04;100.00
56944;BME280;42848;42.524;12.052;2023-05-20T03:04:24;96151.44;;;12.99;100.00
56944;BME280;42848;42.524;12.052;2023-05-20T03:06:50;96164.16;;;12.95;100.00
56944;BME280;42848;42.524;12.052;2023-05-20T03:09:17;96164.84;;;12.92;100.00
56944;BME280;42848;42.524;12.052;2023-05-20T03:11:44;96162.47;;;12.91;100.00
56944;BME280;42848;42.524;12.052;2023-05-20T03:14:11;96162.72;;;12.86;100.00
56944;BME280;42848;42.524;12.052;2023-05-20T03:16:37;96160.00;;;12.86;100.00
56944;BME280;42848;42.524;12.052;2023-05-20T03:19:03;96150.47;;;12.79;100.00
56944;BME280;42848;42.524;12.052;2023-05-20T03:21:28;96153.22;;;12.79;100.00
56944;BME280;42848;42.524;12.052;2023-05-20T03:23:54;96148.91;;;12.78;100.00
56944;BME280;42848;42.524;12.052;2023-05-20T03:26:20;96155.06;;;12.75;100.00
56944;BME280;42848;42.524;12.052;2023-05-20T03:28:46;96157.19;;;12.82;100.00
56944;BME280;42848;42.524;12.052;2023-05-20T03:31:11;96167.88;;;12.75;100.00
56944;BME280;42848;42.524;12.052;2023-05-20T03:33:37;96164.81;;;12.76;100.00
56944;BME280;42848;42.524;12.052;2023-05-20T03:36:03;96149.59;;;12.75;100.00
56944;BME280;42848;42.524;12.052;2023-05-20T03:38:29;96153.81;;;12.73;100.00
56944;BME280;42848;42.524;12.052;2023-05-20T03:40:55;96146.44;;;12.73;100.00
56944;BME280;42848;42.524;12.052;2023-05-20T03:43:21;96155.28;;;12.70;100.00
56944;BME280;42848;42.524;12.052;2023-05-20T03:45:46;96145.81;;;12.80;100.00
56944;BME280;42848;42.524;12.052;2023-05-20T03:48:12;96142.16;;;12.72;100.00
56944;BME280;42848;42.524;12.052;2023-05-20T03:50:37;96145.66;;;12.73;100.00
56944;BME280;42848;42.524;12.052;2023-05-20T03:53:03;96145.66;;;12.73;100.00
56944;BME280;42848;42.524;12.052;2023-05-20T03:55:29;96138.63;;;12.72;100.00
56944;BME280;42848;42.524;12.052;2023-05-20T03:57:54;96150.31;;;12.72;100.00
56944;BME280;42848;42.524;12.052;2023-05-20T04:00:20;96147.69;;;12.76;100.00
56944;BME280;42848;42.524;12.052;2023-05-20T04:02:46;96137.84;;;12.71;100.00
56944;BME280;42848;42.524;12.052;2023-05-20T04:05:12;96135.56;;;12.73;100.00
56944;BME280;42848;42.524;12.052;2023-05-20T04:07:38;96135.13;;;12.71;100.00
56944;BME280;42848;42.524;12.052;2023-05-20T04:10:04;96137.03;;;12.71;100.00
56944;BME280;42848;42.524;12.052;2023-05-20T04:12:30;96147.13;;;12.70;100.00
56944;BME280;42848;42.524;12.052;2023-05-20T04:15:00;96139.50;;;12.76;100.00
56944;BME280;42848;42.524;12.052;2023-05-20T04:17:27;96144.94;;;12.76;100.00
56944;BME280;42848;42.524;12.052;2023-05-20T04:19:55;96135.75;;;12.80;100.00
56944;BME280;42848;42.524;12.052;2023-05-20T04:22:21;96145.81;;;12.80;100.00
56944;BME280;42848;42.524;12.052;2023-05-20T04:24:48;96140.06;;;12.81;100.00
56944;BME280;42848;42.524;12.052;2023-05-20T04:27:14;96142.78;;;12.81;100.00
56944;BME280;42848;42.524;12.052;2023-05-20T04:29:41;96138.91;;;12.82;100.00
56944;BME280;42848;42.524;12.052;2023-05-20T04:32:15;96137.66;;;12.80;100.00
56944;BME280;42848;42.524;12.052;2023-05-20T04:34:43;96149.38;;;12.80;100.00
56944;BME280;42848;42.524;12.052;2023-05-20T04:37:10;96140.06;;;12.81;100.00
56944;BME280;42848;42.524;12.052;2023-05-20T04:39:35;96140.06;;;12.81;100.00
56944;BME280;42848;42.524;12.052;2023-05-20T04:42:04;96142.00;;;12.81;100.00
56944;BME280;42848;42.524;12.052;2023-05-20T04:44:30;96137.34;;;12.81;100.00
56944;BME280;42848;42.524;12.052;2023-05-20T04:46:56;96146.28;;;12.82;100.00
56944;BME280;42848;42.524;12.052;2023-05-20T04:49:23;96142.50;;;12.87;100.00
56944;BME280;42848;42.524;12.052;2023-05-20T04:51:53;96145.94;;;12.84;100.00
56944;BME280;42848;42.524;12.052;2023-05-20T04:54:20;96150.59;;;12.83;100.00
56944;BME280;42848;42.524;12.052;2023-05-20T04:56:46;96152.53;;;12.82;100.00
56944;BME280;42848;42.524;12.052;2023-05-20T04:59:12;96147.53;;;12.85;100.00
56944;BME280;42848;42.524;12.052;2023-05-20T05:01:37;96145.16;;;12.83;100.00
56944;BME280;42848;42.524;12.052;2023-05-20T05:04:03;96135.03;;;12.84;100.00
56944;BME280;42848;42.524;12.052;2023-05-20T05:06:29;96136.88;;;12.79;100.00
56944;BME280;42848;42.524;12.052;2023-05-20T05:08:55;96142.06;;;12.85;100.00
56944;BME280;42848;42.524;12.052;2023-05-20T05:11:20;96140.50;;;12.84;100.00
56944;BME280;42848;42.524;12.052;2023-05-20T05:13:46;96142.88;;;12.85;100.00
56944;BME280;42848;42.524;12.052;2023-05-20T05:16:11;96145.94;;;12.84;100.00
56944;BME280;42848;42.524;12.052;2023-05-20T05:18:37;96142.78;;;12.81;100.00
56944;BME280;42848;42.524;12.052;2023-05-20T05:21:04;96143.66;;;12.86;100.00
56944;BME280;42848;42.524;12.052;2023-05-20T05:23:31;96134.16;;;12.79;100.00
56944;BME280;42848;42.524;12.052;2023-05-20T05:25:57;96129.16;;;12.81;100.00
56944;BME280;42848;42.524;12.052;2023-05-20T05:28:23;96130.75;;;12.82;100.00
56944;BME280;42848;42.524;12.052;2023-05-20T05:30:48;96124.84;;;12.80;100.00
56944;BME280;42848;42.524;12.052;2023-05-20T05:33:14;96105.88;;;12.84;100.00
56944;BME280;42848;42.524;12.052;2023-05-20T05:35:41;96106.22;;;12.82;100.00
56944;BME280;42848;42.524;12.052;2023-05-20T05:38:07;96110.97;;;12.86;100.00
56944;BME280;42848;42.524;12.052;2023-05-20T05:40:32;96114.84;;;12.85;100.00
56944;BME280;42848;42.524;12.052;2023-05-20T05:42:58;96107.09;;;12.87;100.00
56944;BME280;42848;42.524;12.052;2023-05-20T05:45:24;96126.16;;;12.87;100.00
56944;BME280;42848;42.524;12.052;2023-05-20T05:47:49;96118.09;;;12.90;100.00
56944;BME280;42848;42.524;12.052;2023-05-20T05:50:15;96101.75;;;12.90;100.00
56944;BME280;42848;42.524;12.052;2023-05-20T05:52:40;96118.91;;;12.91;100.00
56944;BME280;42848;42.524;12.052;2023-05-20T05:55:07;96112.66;;;12.90;100.00
56944;BME280;42848;42.524;12.052;2023-05-20T05:57:33;96107.72;;;12.96;100.00
56944;BME280;42848;42.524;12.052;2023-05-20T05:59:59;96094.81;;;12.93;100.00
56944;BME280;42848;42.524;12.052;2023-05-20T06:02:25;96089.81;;;12.95;100.00
56944;BME280;42848;42.524;12.052;2023-05-20T06:04:50;96100.00;;;12.98;100.00
56944;BME280;42848;42.524;12.052;2023-05-20T06:07:16;96103.06;;;12.96;100.00
56944;BME280;42848;42.524;12.052;2023-05-20T06:09:43;96098.06;;;12.98;100.00
56944;BME280;42848;42.524;12.052;2023-05-20T06:12:10;96090.69;;;12.99;100.00
56944;BME280;42848;42.524;12.052;2023-05-20T06:14:35;96088.66;;;12.96;100.00
56944;BME280;42848;42.524;12.052;2023-05-20T06:17:02;96108.53;;;12.96;100.00
56944;BME280;42848;42.524;12.052;2023-05-20T06:19:27;96108.88;;;12.95;100.00
56944;BME280;42848;42.524;12.052;2023-05-20T06:21:53;96109.31;;;12.97;100.00
56944;BME280;42848;42.524;12.052;2023-05-20T06:24:18;96101.13;;;12.97;100.00
56944;BME280;42848;42.524;12.052;2023-05-20T06:26:44;96113.59;;;12.98;100.00
56944;BME280;42848;42.524;12.052;2023-05-20T06:29:10;96113.28;;;12.99;100.00
56944;BME280;42848;42.524;12.052;2023-05-20T06:31:36;96113.59;;;12.98;100.00
56944;BME280;42848;42.524;12.052;2023-05-20T06:34:02;96104.31;;;12.99;100.00
56944;BME280;42848;42.524;12.052;2023-05-20T06:36:27;96108.94;;;12.98;100.00
56944;BME280;42848;42.524;12.052;2023-05-20T06:38:53;96105.00;;;12.96;100.00
56944;BME280;42848;42.524;12.052;2023-05-20T06:41:19;96100.44;;;13.00;100.00
56944;BME280;42848;42.524;12.052;2023-05-20T06:43:46;96102.72;;;12.98;100.00
56944;BME280;42848;42.524;12.052;2023-05-20T06:46:12;96105.91;;;13.00;100.00
56944;BME280;42848;42.524;12.052;2023-05-20T06:48:38;96113.13;;;13.08;100.00
56944;BME280;42848;42.524;12.052;2023-05-20T06:51:06;96109.94;;;13.06;100.00
56944;BME280;42848;42.524;12.052;2023-05-20T06:53:32;96109.84;;;13.02;100.00
56944;BME280;42848;42.524;12.052;2023-05-20T06:55:58;96108.34;;;13.05;100.00
56944;BME280;42848;42.524;12.052;2023-05-20T06:58:23;96110.81;;;13.10;100.00
56944;BME280;42848;42.524;12.052;2023-05-20T07:00:49;96111.50;;;13.07;100.00
56944;BME280;42848;42.524;12.052;2023-05-20T07:03:14;96108.47;;;13.08;100.00
56944;BME280;42848;42.524;12.052;2023-05-20T07:05:41;96110.13;;;13.13;100.00
56944;BME280;42848;42.524;12.052;2023-05-20T07:08:06;96100.72;;;13.10;100.00
56944;BME280;42848;42.524;12.052;2023-05-20T07:10:32;96105.38;;;13.10;100.00
56944;BME280;42848;42.524;12.052;2023-05-20T07:12:58;96087.53;;;13.13;100.00
56944;BME280;42848;42.524;12.052;2023-05-20T07:15:24;96092.72;;;13.18;100.00
56944;BME280;42848;42.524;12.052;2023-05-20T07:17:50;96076.91;;;13.23;100.00
56944;BME280;42848;42.524;12.052;2023-05-20T07:20:15;96076.91;;;13.23;100.00
56944;BME280;42848;42.524;12.052;2023-05-20T07:22:41;96079.81;;;13.30;100.00
56944;BME280;42848;42.524;12.052;2023-05-20T07:25:08;96059.59;;;13.31;100.00
56944;BME280;42848;42.524;12.052;2023-05-20T07:27:35;96054.94;;;13.32;100.00
56944;BME280;42848;42.524;12.052;2023-05-20T07:30:01;96048.44;;;13.36;100.00
56944;BME280;42848;42.524;12.052;2023-05-20T07:32:27;96036.44;;;13.41;100.00
56944;BME280;42848;42.524;12.052;2023-05-20T07:34:53;96037.22;;;13.42;100.00
56944;BME280;42848;42.524;12.052;2023-05-20T07:37:18;96026.06;;;13.47;100.00
56944;BME280;42848;42.524;12.052;2023-05-20T07:39:44;96025.19;;;13.43;100.00
56944;BME280;42848;42.524;12.052;2023-05-20T07:42:09;96022.91;;;13.45;100.00
56944;BME280;42848;42.524;12.052;2023-05-20T07:44:35;96013.94;;;13.44;100.00
56944;BME280;42848;42.524;12.052;2023-05-20T07:47:02;96009.63;;;13.43;100.00
56944;BME280;42848;42.524;12.052;2023-05-20T07:49:27;95999.59;;;13.47;100.00
56944;BME280;42848;42.524;12.052;2023-05-20T07:51:53;95987.91;;;13.47;100.00
56944;BME280;42848;42.524;12.052;2023-05-20T07:54:18;96001.22;;;13.52;100.00
56944;BME280;42848;42.524;12.052;2023-05-20T07:56:44;95985.75;;;13.56;100.00
56944;BME280;42848;42.524;12.052;2023-05-20T07:59:10;95988.19;;;13.61;100.00
56944;BME280;42848;42.524;12.052;2023-05-20T08:01:36;95976.28;;;13.69;100.00
56944;BME280;42848;42.524;12.052;2023-05-20T08:04:02;95980.69;;;13.74;100.00
56944;BME280;42848;42.524;12.052;2023-05-20T08:06:28;95968.69;;;13.78;100.00
56944;BME280;42848;42.524;12.052;2023-05-20T08:08:53;95974.44;;;13.73;100.00
56944;BME280;42848;42.524;12.052;2023-05-20T08:11:19;95971.56;;;13.85;100.00
56944;BME280;42848;42.524;12.052;2023-05-20T08:13:48;95947.44;;;13.87;100.00
56944;BME280;42848;42.524;12.052;2023-05-20T08:16:13;95947.75;;;13.82;100.00
56944;BME280;42848;42.524;12.052;2023-05-20T08:18:39;95957.56;;;13.87;100.00
56944;BME280;42848;42.524;12.052;2023-05-20T08:21:05;95964.97;;;13.86;100.00
56944;BME280;42848;42.524;12.052;2023-05-20T08:23:35;95962.22;;;13.86;100.00
56944;BME280;42848;42.524;12.052;2023-05-20T08:26:00;95948.16;;;13.84;100.00
56944;BME280;42848;42.524;12.052;2023-05-20T08:28:29;95941.97;;;13.87;100.00
56944;BME280;42848;42.524;12.052;2023-05-20T08:30:55;95949.00;;;13.88;100.00
56944;BME280;42848;42.524;12.052;2023-05-20T08:33:22;95944.47;;;13.96;100.00
56944;BME280;42848;42.524;12.052;2023-05-20T08:35:48;95923.81;;;13.95;100.00
56944;BME280;42848;42.524;12.052;2023-05-20T08:38:14;95926.53;;;13.95;100.00
56944;BME280;42848;42.524;12.052;2023-05-20T08:40:40;95945.13;;;13.89;100.00
56944;BME280;42848;42.524;12.052;2023-05-20T08:43:06;95947.53;;;13.91;100.00
56944;BME280;42848;42.524;12.052;2023-05-20T08:45:33;95943.84;;;13.83;100.00
56944;BME280;42848;42.524;12.052;2023-05-20T08:47:59;95943.63;;;13.92;100.00
56944;BME280;42848;42.524;12.052;2023-05-20T08:50:26;95941.28;;;13.90;100.00
56944;BME280;42848;42.524;12.052;2023-05-20T08:52:52;95942.28;;;13.82;100.00
56944;BME280;42848;42.524;12.052;2023-05-20T08:55:24;95949.44;;;14.10;100.00
56944;BME280;42848;42.524;12.052;2023-05-20T08:57:53;95950.16;;;13.87;100.00
56944;BME280;42848;42.524;12.052;2023-05-20T09:00:20;95945.78;;;13.83;100.00
56944;BME280;42848;42.524;12.052;2023-05-20T09:02:51;95957.19;;;13.88;100.00
56944;BME280;42848;42.524;12.052;2023-05-20T09:05:18;95956.19;;;13.97;100.00
56944;BME280;42848;42.524;12.052;2023-05-20T09:07:44;95949.31;;;14.03;100.00
56944;BME280;42848;42.524;12.052;2023-05-20T09:10:10;95955.31;;;14.12;100.00
56944;BME280;42848;42.524;12.052;2023-05-20T09:12:36;95959.91;;;14.08;100.00
56944;BME280;42848;42.524;12.052;2023-05-20T09:15:02;95954.91;;;14.10;100.00
56944;BME280;42848;42.524;12.052;2023-05-20T09:17:29;95966.81;;;14.21;100.00
56944;BME280;42848;42.524;12.052;2023-05-20T09:19:55;95966.00;;;14.20;100.00
56944;BME280;42848;42.524;12.052;2023-05-20T09:22:29;95970.47;;;14.29;100.00
56944;BME280;42848;42.524;12.052;2023-05-20T09:24:55;95964.84;;;14.21;100.00
56944;BME280;42848;42.524;12.052;2023-05-20T09:27:21;95972.53;;;14.16;100.00
56944;BME280;42848;42.524;12.052;2023-05-20T09:29:48;95980.03;;;14.19;100.00
56944;BME280;42848;42.524;12.052;2023-05-20T09:32:14;95985.50;;;14.19;100.00
56944;BME280;42848;42.524;12.052;2023-05-20T09:34:40;95992.66;;;14.27;100.00
56944;BME280;42848;42.524;12.052;2023-05-20T09:37:08;95987.31;;;14.34;100.00
56944;BME280;42848;42.524;12.052;2023-05-20T09:39:54;96027.94;;;14.36;100.00
56944;BME280;42848;42.524;12.052;2023-05-20T09:42:22;96020.16;;;14.38;100.00
56944;BME280;42848;42.524;12.052;2023-05-20T09:44:52;96027.94;;;14.36;100.00
56944;BME280;42848;42.524;12.052;2023-05-20T09:47:23;96031.09;;;14.38;100.00
56944;BME280;42848;42.524;12.052;2023-05-20T09:49:51;96036.19;;;14.39;100.00
56944;BME280;42848;42.524;12.052;2023-05-20T09:52:18;96031.00;;;14.34;100.00
56944;BME280;42848;42.524;12.052;2023-05-20T09:54:44;96038.84;;;14.36;100.00
56944;BME280;42848;42.524;12.052;2023-05-20T09:57:11;96025.53;;;14.34;100.00
56944;BME280;42848;42.524;12.052;2023-05-20T09:59:39;96031.88;;;14.38;100.00
56944;BME280;42848;42.524;12.052;2023-05-20T10:02:05;96014.63;;;14.34;100.00
56944;BME280;42848;42.524;12.052;2023-05-20T10:04:36;96021.22;;;14.33;100.00
56944;BME280;42848;42.524;12.052;2023-05-20T10:10:07;96017.84;;;14.40;100.00
56944;BME280;42848;42.524;12.052;2023-05-20T10:20:23;96000.84;;;14.46;100.00
56944;BME280;42848;42.524;12.052;2023-05-20T10:22:57;96004.13;;;14.56;100.00
56944;BME280;42848;42.524;12.052;2023-05-20T10:25:26;95996.97;;;14.47;100.00
56944;BME280;42848;42.524;12.052;2023-05-20T10:28:09;95991.97;;;14.53;100.00
56944;BME280;42848;42.524;12.052;2023-05-20T10:30:34;95990.72;;;14.47;100.00
56944;BME280;42848;42.524;12.052;2023-05-20T10:33:04;95977.44;;;14.45;100.00
56944;BME280;42848;42.524;12.052;2023-05-20T10:35:31;95984.53;;;14.50;100.00
56944;BME280;42848;42.524;12.052;2023-05-20T10:38:10;95978.28;;;14.49;100.00
56944;BME280;42848;42.524;12.052;2023-05-20T10:40:36;95995.22;;;14.59;100.00
56944;BME280;42848;42.524;12.052;2023-05-20T10:43:09;95992.34;;;14.51;100.00
56944;BME280;42848;42.524;12.052;2023-05-20T10:45:55;95994.28;;;14.51;100.00
56944;BME280;42848;42.524;12.052;2023-05-20T10:48:31;95971.28;;;14.52;100.00
56944;BME280;42848;42.524;12.052;2023-05-20T10:50:58;95992.34;;;14.51;100.00
56944;BME280;42848;42.524;12.052;2023-05-20T10:53:26;95991.31;;;14.60;100.00
56944;BME280;42848;42.524;12.052;2023-05-20T10:55:52;95973.78;;;14.61;100.00
56944;BME280;42848;42.524;12.052;2023-05-20T10:58:23;95999.69;;;14.70;100.00
56944;BME280;42848;42.524;12.052;2023-05-20T11:00:53;95988.34;;;14.68;100.00
56944;BME280;42848;42.524;12.052;2023-05-20T11:03:21;95977.47;;;14.72;100.00
56944;BME280;42848;42.524;12.052;2023-05-20T11:05:47;96002.50;;;14.74;100.00
56944;BME280;42848;42.524;12.052;2023-05-20T11:08:13;95990.84;;;14.77;100.00
56944;BME280;42848;42.524;12.052;2023-05-20T11:10:40;95985.38;;;14.77;100.00
56944;BME280;42848;42.524;12.052;2023-05-20T11:13:06;95977.19;;;14.77;100.00
56944;BME280;42848;42.524;12.052;2023-05-20T11:15:34;95974.56;;;14.84;100.00
56944;BME280;42848;42.524;12.052;2023-05-20T11:18:02;95980.03;;;14.84;100.00
56944;BME280;42848;42.524;12.052;2023-05-20T11:20:28;95981.25;;;14.87;100.00
56944;BME280;42848;42.524;12.052;2023-05-20T11:22:54;95978.56;;;14.90;100.00
56944;BME280;42848;42.524;12.052;2023-05-20T11:25:21;95976.03;;;15.01;100.00
56944;BME280;42848;42.524;12.052;2023-05-20T11:27:48;95974.06;;;15.01;100.00
56944;BME280;42848;42.524;12.052;2023-05-20T11:30:15;95968.59;;;15.01;100.00
56944;BME280;42848;42.524;12.052;2023-05-20T11:32:56;95982.28;;;15.01;100.00
56944;BME280;42848;42.524;12.052;2023-05-20T11:35:27;95976.31;;;14.96;100.00
56944;BME280;42848;42.524;12.052;2023-05-20T11:38:04;95978.31;;;14.99;100.00
56944;BME280;42848;42.524;12.052;2023-05-20T11:40:33;95984.50;;;14.96;100.00
56944;BME280;42848;42.524;12.052;2023-05-20T11:43:01;95985.31;;;14.96;100.00
56944;BME280;42848;42.524;12.052;2023-05-20T11:48:07;95965.75;;;14.94;100.00
56944;BME280;42848;42.524;12.052;2023-05-20T11:50:35;95968.91;;;14.96;100.00
56944;BME280;42848;42.524;12.052;2023-05-20T11:53:05;95972.38;;;14.93;100.00
56944;BME280;42848;42.524;12.052;2023-05-20T11:55:32;95983.31;;;14.93;100.00
56944;BME280;42848;42.524;12.052;2023-05-20T11:57:58;95996.97;;;14.93;100.00
56944;BME280;42848;42.524;12.052;2023-05-20T12:00:24;96001.69;;;14.96;100.00
56944;BME280;42848;42.524;12.052;2023-05-20T12:02:50;96002.44;;;14.93;100.00
56944;BME280;42848;42.524;12.052;2023-05-20T12:05:16;96006.34;;;14.92;100.00
56944;BME280;42848;42.524;12.052;2023-05-20T12:07:42;96007.03;;;14.89;100.00
56944;BME280;42848;42.524;12.052;2023-05-20T12:10:09;96003.53;;;14.89;100.00
56944;BME280;42848;42.524;12.052;2023-05-20T12:12:35;96024.31;;;14.93;100.00
56944;BME280;42848;42.524;12.052;2023-05-20T12:15:04;96014.91;;;14.91;100.00
56944;BME280;42848;42.524;12.052;2023-05-20T12:17:33;96021.94;;;14.92;100.00
56944;BME280;42848;42.524;12.052;2023-05-20T12:19:59;96013.28;;;14.90;100.00
56944;BME280;42848;42.524;12.052;2023-05-20T12:22:25;96028.50;;;14.87;100.00
56944;BME280;42848;42.524;12.052;2023-05-20T12:24:50;96036.81;;;14.94;100.00
56944;BME280;42848;42.524;12.052;2023-05-20T12:27:16;96041.00;;;14.88;100.00
56944;BME280;42848;42.524;12.052;2023-05-20T12:29:41;96040.63;;;14.90;100.00
56944;BME280;42848;42.524;12.052;2023-05-20T12:32:07;96035.59;;;14.92;100.00
56944;BME280;42848;42.524;12.052;2023-05-20T12:34:32;96036.69;;;14.87;100.00
56944;BME280;42848;42.524;12.052;2023-05-20T12:37:00;96042.94;;;14.88;100.00
56944;BME280;42848;42.524;12.052;2023-05-20T12:39:25;96045.19;;;14.82;100.00
56944;BME280;42848;42.524;12.052;2023-05-20T12:41:51;96049.44;;;14.79;100.00
56944;BME280;42848;42.524;12.052;2023-05-20T12:44:16;96045.78;;;14.72;100.00
56944;BME280;42848;42.524;12.052;2023-05-20T12:46:42;96046.22;;;14.74;100.00
56944;BME280;42848;42.524;12.052;2023-05-20T12:49:07;96053.53;;;14.70;100.00
56944;BME280;42848;42.524;12.052;2023-05-20T12:51:33;96056.22;;;14.66;100.00